sensor_id;sensor_type;location;lat;lon;timestamp;temperature;humidity
41080;DHT22;26826;50.718;7.114;2023-04-25T00:03:46;8.00;99.90
41080;DHT22;26826;50.718;7.114;2023-04-25T00:13:46;8.00;99.90
41080;DHT22;26826;50.718;7.114;2023-04-25T00:23:47;7.90;99.90
41080;DHT22;26826;50.718;7.114;2023-04-25T00:33:47;7.70;99.90
41080;DHT22;26826;50.718;7.114;2023-04-25T00:43:48;7.70;99.90
41080;DHT22;26826;50.718;7.114;2023-04-25T00:53:50;7.50;99.90
41080;DHT22;26826;50.718;7.114;2023-04-25T01:03:51;7.30;99.90
41080;DHT22;26826;50.718;7.114;2023-04-25T01:13:53;7.20;99.90
41080;DHT22;26826;50.718;7.114;2023-04-25T01:23:54;7.10;99.90
41080;DHT22;26826;50.718;7.114;2023-04-25T01:33:54;7.00;99.90
41080;DHT22;26826;50.718;7.114;2023-04-25T01:43:55;7.00;99.90
41080;DHT22;26826;50.718;7.114;2023-04-25T01:53:56;6.80;99.90
41080;DHT22;26826;50.718;7.114;2023-04-25T02:03:57;6.70;99.90
41080;DHT22;26826;50.718;7.114;2023-04-25T02:13:57;6.60;99.90
41080;DHT22;26826;50.718;7.114;2023-04-25T02:23:58;6.50;99.90
41080;DHT22;26826;50.718;7.114;2023-04-25T02:33:59;6.40;99.90
41080;DHT22;26826;50.718;7.114;2023-04-25T02:43:59;6.30;99.90
41080;DHT22;26826;50.718;7.114;2023-04-25T02:54:00;6.20;99.90
41080;DHT22;26826;50.718;7.114;2023-04-25T03:04:00;6.20;99.90
41080;DHT22;26826;50.718;7.114;2023-04-25T03:14:01;6.10;99.90
41080;DHT22;26826;50.718;7.114;2023-04-25T03:24:03;6.00;99.90
41080;DHT22;26826;50.718;7.114;2023-04-25T03:34:04;6.10;99.90
41080;DHT22;26826;50.718;7.114;2023-04-25T03:44:04;6.00;99.90
41080;DHT22;26826;50.718;7.114;2023-04-25T03:54:05;6.10;99.90
41080;DHT22;26826;50.718;7.114;2023-04-25T04:04:05;6.10;99.90
41080;DHT22;26826;50.718;7.114;2023-04-25T04:14:06;6.20;99.90
41080;DHT22;26826;50.718;7.114;2023-04-25T04:24:07;6.20;99.90
41080;DHT22;26826;50.718;7.114;2023-04-25T04:34:07;6.30;99.90
41080;DHT22;26826;50.718;7.114;2023-04-25T04:44:08;6.40;99.90
41080;DHT22;26826;50.718;7.114;2023-04-25T04:54:09;6.40;99.90
41080;DHT22;26826;50.718;7.114;2023-04-25T05:04:09;6.50;99.90
41080;DHT22;26826;50.718;7.114;2023-04-25T05:14:10;6.60;99.90
41080;DHT22;26826;50.718;7.114;2023-04-25T05:24:10;6.60;99.90
41080;DHT22;26826;50.718;7.114;2023-04-25T05:34:11;6.70;99.90
41080;DHT22;26826;50.718;7.114;2023-04-25T05:44:11;6.90;99.90
41080;DHT22;26826;50.718;7.114;2023-04-25T05:54:12;7.00;99.90
41080;DHT22;26826;50.718;7.114;2023-04-25T06:04:13;7.20;99.90
41080;DHT22;26826;50.718;7.114;2023-04-25T06:14:13;7.10;99.90
41080;DHT22;26826;50.718;7.114;2023-04-25T06:24:14;7.30;99.90
41080;DHT22;26826;50.718;7.114;2023-04-25T06:34:14;7.50;99.90
41080;DHT22;26826;50.718;7.114;2023-04-25T06:44:15;7.70;99.90
41080;DHT22;26826;50.718;7.114;2023-04-25T06:54:16;7.70;99.90
41080;DHT22;26826;50.718;7.114;2023-04-25T07:04:17;7.80;99.90
41080;DHT22;26826;50.718;7.114;2023-04-25T07:14:18;8.00;99.90
41080;DHT22;26826;50.718;7.114;2023-04-25T07:24:18;8.90;99.90
41080;DHT22;26826;50.718;7.114;2023-04-25T07:34:19;8.80;99.90
41080;DHT22;26826;50.718;7.114;2023-04-25T07:44:19;8.60;99.90
41080;DHT22;26826;50.718;7.114;2023-04-25T07:54:20;8.70;99.90
41080;DHT22;26826;50.718;7.114;2023-04-25T08:04:20;8.90;99.90
41080;DHT22;26826;50.718;7.114;2023-04-25T08:14:21;9.30;99.90
41080;DHT22;26826;50.718;7.114;2023-04-25T08:24:22;9.70;99.90
41080;DHT22;26826;50.718;7.114;2023-04-25T08:34:23;10.00;99.90
41080;DHT22;26826;50.718;7.114;2023-04-25T08:44:23;9.90;99.90
41080;DHT22;26826;50.718;7.114;2023-04-25T08:54:27;9.40;99.90
41080;DHT22;26826;50.718;7.114;2023-04-25T09:04:32;9.20;99.90
41080;DHT22;26826;50.718;7.114;2023-04-25T09:14:33;9.30;99.90
41080;DHT22;26826;50.718;7.114;2023-04-25T09:24:36;10.10;99.90
41080;DHT22;26826;50.718;7.114;2023-04-25T09:34:40;11.50;99.90
41080;DHT22;26826;50.718;7.114;2023-04-25T09:44:43;11.30;99.90
41080;DHT22;26826;50.718;7.114;2023-04-25T09:54:45;11.00;99.90
41080;DHT22;26826;50.718;7.114;2023-04-25T10:04:51;10.50;99.90
41080;DHT22;26826;50.718;7.114;2023-04-25T10:14:54;10.60;99.90
41080;DHT22;26826;50.718;7.114;2023-04-25T10:24:55;11.10;99.90
41080;DHT22;26826;50.718;7.114;2023-04-25T10:34:57;11.10;99.90
41080;DHT22;26826;50.718;7.114;2023-04-25T10:45:02;10.60;99.90
41080;DHT22;26826;50.718;7.114;2023-04-25T10:55:04;11.30;99.90
41080;DHT22;26826;50.718;7.114;2023-04-25T11:05:06;11.30;99.90
41080;DHT22;26826;50.718;7.114;2023-04-25T11:15:07;10.70;99.90
41080;DHT22;26826;50.718;7.114;2023-04-25T11:25:09;10.40;99.90
41080;DHT22;26826;50.718;7.114;2023-04-25T11:35:10;11.40;99.90
41080;DHT22;26826;50.718;7.114;2023-04-25T11:45:11;13.10;99.90
41080;DHT22;26826;50.718;7.114;2023-04-25T11:55:14;12.70;99.90
41080;DHT22;26826;50.718;7.114;2023-04-25T12:05:15;11.60;99.90
41080;DHT22;26826;50.718;7.114;2023-04-25T12:15:18;10.80;99.90
41080;DHT22;26826;50.718;7.114;2023-04-25T12:25:37;10.50;99.90
41080;DHT22;26826;50.718;7.114;2023-04-25T12:35:38;10.90;99.80
41080;DHT22;26826;50.718;7.114;2023-04-25T12:45:39;11.50;99.20
41080;DHT22;26826;50.718;7.114;2023-04-25T12:55:40;11.50;99.30
41080;DHT22;26826;50.718;7.114;2023-04-25T13:05:41;11.60;99.70
41080;DHT22;26826;50.718;7.114;2023-04-25T13:15:42;13.50;98.80
41080;DHT22;26826;50.718;7.114;2023-04-25T13:25:43;13.80;97.70
41080;DHT22;26826;50.718;7.114;2023-04-25T13:35:44;13.60;95.70
41080;DHT22;26826;50.718;7.114;2023-04-25T13:45:48;12.60;97.00
41080;DHT22;26826;50.718;7.114;2023-04-25T13:55:50;11.70;97.90
41080;DHT22;26826;50.718;7.114;2023-04-25T14:05:50;11.20;99.90
41080;DHT22;26826;50.718;7.114;2023-04-25T14:15:51;10.70;99.90
41080;DHT22;26826;50.718;7.114;2023-04-25T14:25:52;11.00;99.60
41080;DHT22;26826;50.718;7.114;2023-04-25T14:35:52;11.00;98.80
41080;DHT22;26826;50.718;7.114;2023-04-25T14:45:53;11.40;98.90
41080;DHT22;26826;50.718;7.114;2023-04-25T15:06:56;13.30;96.60
41080;DHT22;26826;50.718;7.114;2023-04-25T15:16:57;13.40;96.00
41080;DHT22;26826;50.718;7.114;2023-04-25T15:26:57;12.40;95.10
41080;DHT22;26826;50.718;7.114;2023-04-25T15:36:58;11.90;95.80
41080;DHT22;26826;50.718;7.114;2023-04-25T15:47:01;12.00;95.00
41080;DHT22;26826;50.718;7.114;2023-04-25T15:57:22;12.00;94.40
41080;DHT22;26826;50.718;7.114;2023-04-25T16:07:23;11.90;94.90
41080;DHT22;26826;50.718;7.114;2023-04-25T16:27:26;11.80;96.60
41080;DHT22;26826;50.718;7.114;2023-04-25T16:48:09;13.40;94.90
41080;DHT22;26826;50.718;7.114;2023-04-25T16:58:09;12.90;95.50
41080;DHT22;26826;50.718;7.114;2023-04-25T17:08:13;12.10;95.50
41080;DHT22;26826;50.718;7.114;2023-04-25T17:18:14;11.60;96.50
41080;DHT22;26826;50.718;7.114;2023-04-25T17:28:15;11.20;95.90
41080;DHT22;26826;50.718;7.114;2023-04-25T17:38:15;10.90;96.10
41080;DHT22;26826;50.718;7.114;2023-04-25T17:48:16;10.70;97.20
41080;DHT22;26826;50.718;7.114;2023-04-25T17:58:17;10.50;98.50
41080;DHT22;26826;50.718;7.114;2023-04-25T18:08:18;10.00;99.90
41080;DHT22;26826;50.718;7.114;2023-04-25T18:18:18;9.70;99.90
41080;DHT22;26826;50.718;7.114;2023-04-25T18:28:19;9.60;99.90
41080;DHT22;26826;50.718;7.114;2023-04-25T18:38:21;9.50;99.90
41080;DHT22;26826;50.718;7.114;2023-04-25T18:48:22;9.60;99.90
41080;DHT22;26826;50.718;7.114;2023-04-25T18:58:22;9.50;99.90
41080;DHT22;26826;50.718;7.114;2023-04-25T19:08:23;9.30;99.90
41080;DHT22;26826;50.718;7.114;2023-04-25T19:18:23;9.10;99.90
41080;DHT22;26826;50.718;7.114;2023-04-25T19:28:25;8.90;99.90
41080;DHT22;26826;50.718;7.114;2023-04-25T19:38:25;8.60;99.90
41080;DHT22;26826;50.718;7.114;2023-04-25T19:48:26;8.40;99.90
41080;DHT22;26826;50.718;7.114;2023-04-25T19:58:27;8.20;99.90
41080;DHT22;26826;50.718;7.114;2023-04-25T20:08:29;8.00;99.90
41080;DHT22;26826;50.718;7.114;2023-04-25T20:18:30;7.90;99.90
41080;DHT22;26826;50.718;7.114;2023-04-25T20:28:39;7.70;99.90
41080;DHT22;26826;50.718;7.114;2023-04-25T20:38:41;7.60;99.90
41080;DHT22;26826;50.718;7.114;2023-04-25T20:48:41;7.30;99.90
41080;DHT22;26826;50.718;7.114;2023-04-25T20:58:42;7.20;99.90
41080;DHT22;26826;50.718;7.114;2023-04-25T21:08:42;6.90;99.90
41080;DHT22;26826;50.718;7.114;2023-04-25T21:18:43;6.70;99.90
41080;DHT22;26826;50.718;7.114;2023-04-25T21:28:44;6.70;99.90
41080;DHT22;26826;50.718;7.114;2023-04-25T21:38:46;6.70;99.90
41080;DHT22;26826;50.718;7.114;2023-04-25T21:48:47;6.70;99.90
41080;DHT22;26826;50.718;7.114;2023-04-25T21:58:47;6.80;99.90
41080;DHT22;26826;50.718;7.114;2023-04-25T22:08:48;6.80;99.90
41080;DHT22;26826;50.718;7.114;2023-04-25T22:18:49;6.80;99.90
41080;DHT22;26826;50.718;7.114;2023-04-25T22:28:51;6.90;99.90
41080;DHT22;26826;50.718;7.114;2023-04-25T22:38:51;7.00;99.90
41080;DHT22;26826;50.718;7.114;2023-04-25T22:48:52;7.00;99.90
41080;DHT22;26826;50.718;7.114;2023-04-25T22:58:53;6.90;99.90
41080;DHT22;26826;50.718;7.114;2023-04-25T23:08:54;6.70;99.90
41080;DHT22;26826;50.718;7.114;2023-04-25T23:18:54;6.60;99.90
41080;DHT22;26826;50.718;7.114;2023-04-25T23:28:55;6.50;99.90
41080;DHT22;26826;50.718;7.114;2023-04-25T23:38:55;6.30;99.90
41080;DHT22;26826;50.718;7.114;2023-04-25T23:48:56;6.10;99.90
41080;DHT22;26826;50.718;7.114;2023-04-25T23:58:57;5.90;99.90
